Time;durP1;ratioP1;P1;durP2;ratioP2;P2;SDS_P1;SDS_P2;PMS_P1;PMS_P2;Temp;Humidity;BMP_temperature;BMP_pressure;BME280_temperature;BME280_humidity;BME280_pressure;Samples;Min_cycle;Max_cycle;Signal;HPM_P1;HPM_P2
2023/09/10 00:01:08;;;;;;;4.00;2.80;;;;;;;27.87;34.64;101254.98;102654;1300;61868;-81
2023/09/10 00:03:34;;;;;;;4.40;2.70;;;;;;;27.86;34.34;101255.44;102643;1298;61414;-81
2023/09/10 00:06:01;;;;;;;4.50;2.70;;;;;;;27.87;34.41;101258.61;102659;1300;61449;-81
2023/09/10 00:08:27;;;;;;;3.70;2.60;;;;;;;27.87;34.33;101262.80;102675;1295;61396;-81
2023/09/10 00:10:56;;;;;;;4.30;2.60;;;;;;;27.87;34.11;101265.89;102723;1298;61402;-81
2023/09/10 00:13:24;;;;;;;4.10;2.60;;;;;;;27.87;34.08;101269.33;102618;1295;63881;-81
2023/09/10 00:15:50;;;;;;;4.10;2.60;;;;;;;27.87;34.27;101269.50;102724;1296;66047;-81
2023/09/10 00:18:16;;;;;;;3.50;2.40;;;;;;;27.87;34.23;101270.04;102585;1297;62056;-81
2023/09/10 00:20:41;;;;;;;4.20;2.70;;;;;;;27.87;34.30;101268.95;102551;1303;61356;-81
2023/09/10 00:23:07;;;;;;;3.80;2.60;;;;;;;27.87;34.28;101267.52;102708;1296;61435;-82
2023/09/10 00:25:34;;;;;;;4.30;2.90;;;;;;;27.86;34.19;101264.30;102594;1297;61851;-82
2023/09/10 00:27:59;;;;;;;3.20;2.40;;;;;;;27.87;34.19;101265.90;102596;1297;61370;-82
2023/09/10 00:30:27;;;;;;;4.00;2.80;;;;;;;27.87;34.25;101268.44;102555;1298;61466;-82
2023/09/10 00:32:54;;;;;;;4.00;2.60;;;;;;;27.86;34.32;101269.38;102815;1299;61423;-81
2023/09/10 00:35:21;;;;;;;3.90;2.70;;;;;;;27.86;34.15;101265.98;102703;1294;61739;-82
2023/09/10 00:37:46;;;;;;;4.50;2.60;;;;;;;27.86;34.29;101267.81;102639;1294;61335;-82
2023/09/10 00:40:12;;;;;;;4.60;2.60;;;;;;;27.86;34.32;101275.38;102642;1294;61507;-81
2023/09/10 00:42:38;;;;;;;4.00;2.40;;;;;;;27.85;34.29;101275.07;102704;1294;61394;-82
2023/09/10 00:45:06;;;;;;;4.70;2.70;;;;;;;27.86;34.05;101278.12;102756;1294;64911;-82
2023/09/10 00:47:31;;;;;;;4.30;2.60;;;;;;;27.86;34.38;101278.66;102662;1295;65716;-81
2023/09/10 00:49:57;;;;;;;4.40;2.60;;;;;;;27.86;34.31;101280.46;102701;1297;61336;-82
2023/09/10 00:52:22;;;;;;;4.70;2.70;;;;;;;27.86;34.41;101280.78;102666;1294;61488;-82
2023/09/10 00:54:49;;;;;;;3.60;2.50;;;;;;;27.85;34.41;101279.84;102665;1294;61391;-82
2023/09/10 00:57:15;;;;;;;4.10;2.50;;;;;;;27.85;34.39;101285.58;102653;1303;61299;-82
2023/09/10 00:59:40;;;;;;;4.90;2.50;;;;;;;27.85;34.37;101287.00;102741;1296;61387;-82
2023/09/10 01:02:06;;;;;;;4.60;2.70;;;;;;;27.86;34.23;101287.34;102653;1295;61428;-81
2023/09/10 01:04:31;;;;;;;5.50;2.80;;;;;;;27.85;34.27;101283.94;102823;1294;61304;-82
2023/09/10 01:06:57;;;;;;;4.00;2.80;;;;;;;27.86;34.15;101285.71;102660;1294;61418;-82
2023/09/10 01:09:22;;;;;;;4.10;2.60;;;;;;;27.85;34.61;101282.89;102743;1294;61382;-81
2023/09/10 01:12:00;;;;;;;4.70;2.90;;;;;;;27.85;34.39;101283.80;102663;1303;61406;-81
2023/09/10 01:15:01;;;;;;;3.80;2.60;;;;;;;27.85;34.51;101286.54;102716;1295;61282;-82
2023/09/10 01:17:48;;;;;;;5.20;2.70;;;;;;;27.84;34.54;101287.85;102730;1297;61341;-83
2023/09/10 01:21:11;;;;;;;4.60;2.80;;;;;;;27.83;34.37;101287.90;102934;1294;63688;-81
2023/09/10 01:24:07;;;;;;;4.60;2.70;;;;;;;27.83;34.40;101290.11;102374;1300;65743;-81
2023/09/10 01:26:36;;;;;;;4.50;2.70;;;;;;;27.83;34.51;101291.77;102414;1300;61334;-81
2023/09/10 01:29:04;;;;;;;4.30;2.60;;;;;;;27.83;34.51;101292.63;102305;1306;62064;-81
2023/09/10 01:31:31;;;;;;;5.00;2.60;;;;;;;27.83;34.52;101288.30;102537;1300;63643;-81
2023/09/10 01:33:58;;;;;;;4.50;2.70;;;;;;;27.83;34.42;101280.88;102241;1300;67126;-81
2023/09/10 01:36:44;;;;;;;3.10;2.20;;;;;;;27.83;34.32;101279.25;102325;1301;61416;-81
2023/09/10 01:39:12;;;;;;;4.50;2.60;;;;;;;27.83;34.42;101283.80;102219;1303;61404;-82
2023/09/10 01:41:38;;;;;;;4.50;3.10;;;;;;;27.83;34.26;101281.96;102354;1300;64183;-82
2023/09/10 01:44:04;;;;;;;4.20;2.60;;;;;;;27.83;34.33;101280.71;102234;1300;61423;-81
2023/09/10 01:46:30;;;;;;;4.50;2.60;;;;;;;27.83;34.48;101283.60;102489;1300;61596;-81
2023/09/10 01:48:56;;;;;;;4.40;2.70;;;;;;;27.83;34.48;101286.86;102271;1300;61496;-82
2023/09/10 01:51:21;;;;;;;3.80;2.50;;;;;;;27.83;34.28;101287.77;102296;1301;61504;-82
2023/09/10 01:53:47;;;;;;;4.00;2.50;;;;;;;27.83;34.51;101285.94;102325;1294;61521;-82
2023/09/10 01:56:13;;;;;;;3.70;2.70;;;;;;;27.84;34.52;101285.37;102745;1295;65875;-82
2023/09/10 01:58:38;;;;;;;4.30;2.70;;;;;;;27.83;34.61;101288.32;102853;1294;61455;-82
2023/09/10 02:01:06;;;;;;;4.10;2.90;;;;;;;27.83;34.58;101294.28;102725;1294;61407;-82
2023/09/10 02:03:31;;;;;;;5.40;2.50;;;;;;;27.83;34.46;101297.94;102815;1295;61880;-82
2023/09/10 02:05:58;;;;;;;4.20;2.60;;;;;;;27.83;34.42;101298.80;102883;1294;61403;-81
2023/09/10 02:08:24;;;;;;;4.70;2.50;;;;;;;27.83;34.48;101297.21;102667;1295;61396;-81
2023/09/10 02:10:50;;;;;;;4.30;2.70;;;;;;;27.83;34.51;101300.25;102732;1294;62353;-81
2023/09/10 02:13:15;;;;;;;4.30;2.50;;;;;;;27.83;34.54;101302.77;102829;1294;61394;-82
2023/09/10 02:15:41;;;;;;;5.40;2.60;;;;;;;27.82;34.38;101300.85;102936;1295;61402;-81
2023/09/10 02:18:07;;;;;;;4.20;2.60;;;;;;;27.83;34.25;101299.93;102689;1295;65889;-81
2023/09/10 02:20:36;;;;;;;4.40;2.70;;;;;;;27.82;34.44;101300.13;102700;1298;61561;-82
2023/09/10 02:23:03;;;;;;;4.50;2.70;;;;;;;27.82;34.59;101299.11;102802;1294;61302;-81
2023/09/10 02:25:29;;;;;;;4.20;2.50;;;;;;;27.82;34.52;101300.50;102568;1297;61370;-82
2023/09/10 02:27:54;;;;;;;3.70;2.50;;;;;;;27.83;34.63;101303.90;102632;1298;61413;-81
2023/09/10 02:30:20;;;;;;;5.60;2.70;;;;;;;27.82;34.61;101305.02;102523;1297;61599;-81
2023/09/10 02:32:45;;;;;;;4.00;2.70;;;;;;;27.82;34.57;101303.80;102590;1302;61347;-82
2023/09/10 02:35:11;;;;;;;4.40;2.70;;;;;;;27.81;34.72;101300.05;102517;1298;61590;-83
2023/09/10 02:37:36;;;;;;;4.10;2.60;;;;;;;27.81;34.55;101304.02;102406;1297;63987;-82
2023/09/10 02:40:04;;;;;;;4.30;2.50;;;;;;;27.82;34.67;101302.70;102704;1303;61577;-83
2023/09/10 02:42:31;;;;;;;;;;;;;;;27.82;34.76;101304.11;102512;1301;61471;-82
2023/09/10 02:44:58;;;;;;;4.20;2.40;;;;;;;27.79;34.76;101303.53;102691;1297;61498;-82
2023/09/10 02:47:25;;;;;;;4.00;2.60;;;;;;;27.80;34.60;101307.98;102685;1297;63907;-83
2023/09/10 02:49:50;;;;;;;5.30;2.70;;;;;;;27.80;34.32;101307.98;102632;1303;61870;-82
2023/09/10 02:52:17;;;;;;;4.40;2.60;;;;;;;27.80;34.46;101308.35;102688;1297;61370;-82
2023/09/10 02:54:42;;;;;;;6.00;2.70;;;;;;;27.80;34.51;101307.23;102537;1297;61630;-83
2023/09/10 02:57:08;;;;;;;4.70;2.50;;;;;;;27.80;34.62;101308.50;102553;1297;61562;-83
2023/09/10 02:59:34;;;;;;;4.00;2.60;;;;;;;27.80;34.57;101309.24;102687;1297;61321;-82
2023/09/10 03:01:59;;;;;;;4.20;2.50;;;;;;;27.80;34.35;101306.67;102778;1297;62048;-83
2023/09/10 03:04:25;;;;;;;4.60;2.70;;;;;;;27.79;34.51;101306.79;102857;1295;61278;-83
2023/09/10 03:06:51;;;;;;;4.20;2.40;;;;;;;27.79;34.54;101308.92;102484;1294;307755;-83
2023/09/10 03:09:17;;;;;;;4.80;2.90;;;;;;;27.80;34.53;101312.33;102845;1298;61330;-82
2023/09/10 03:11:43;;;;;;;4.50;2.20;;;;;;;27.80;34.68;101311.56;102791;1299;61510;-82
2023/09/10 03:14:09;;;;;;;4.30;2.60;;;;;;;27.79;34.57;101319.05;102656;1294;61318;-82
2023/09/10 03:16:35;;;;;;;4.90;2.70;;;;;;;27.79;34.58;101315.98;102712;1295;61398;-83
2023/09/10 03:19:01;;;;;;;5.10;2.60;;;;;;;27.79;34.65;101317.61;102770;1295;61286;-83
2023/09/10 03:21:27;;;;;;;4.40;2.40;;;;;;;27.79;34.70;101318.38;102916;1294;61424;-82
2023/09/10 03:23:53;;;;;;;4.90;2.60;;;;;;;27.79;34.59;101317.15;102734;1296;65886;-81
2023/09/10 03:26:19;;;;;;;3.80;2.30;;;;;;;27.79;34.64;101318.72;102828;1294;61293;-81
2023/09/10 03:28:44;;;;;;;4.40;2.80;;;;;;;27.79;34.60;101322.70;102839;1294;61419;-81
2023/09/10 03:31:10;;;;;;;3.40;2.30;;;;;;;27.78;34.40;101321.83;102701;1295;61547;-81
2023/09/10 03:33:35;;;;;;;4.70;2.50;;;;;;;27.78;34.51;101323.50;102846;1294;61480;-81
2023/09/10 03:36:02;;;;;;;4.60;2.30;;;;;;;27.78;34.49;101322.38;102802;1295;61346;-81
2023/09/10 03:38:28;;;;;;;4.80;2.30;;;;;;;27.79;34.83;101328.52;102915;1295;61410;-81
2023/09/10 03:40:54;;;;;;;4.80;2.80;;;;;;;27.78;34.21;101326.91;102830;1294;61405;-81
2023/09/10 03:43:19;;;;;;;4.00;2.50;;;;;;;27.78;34.53;101329.62;102926;1294;72540;-81
2023/09/10 03:45:45;;;;;;;4.60;2.60;;;;;;;27.78;34.79;101331.11;102941;1299;61396;-80
2023/09/10 03:48:11;;;;;;;5.00;2.60;;;;;;;27.78;34.74;101329.32;102638;1300;61382;-83
2023/09/10 03:50:37;;;;;;;4.10;2.60;;;;;;;27.79;34.78;101330.71;102950;1295;61471;-81
2023/09/10 03:53:03;;;;;;;5.20;2.80;;;;;;;27.77;34.74;101333.51;103049;1299;61443;-81
2023/09/10 03:55:28;;;;;;;4.20;2.50;;;;;;;27.78;34.65;101336.54;102853;1294;61338;-81
2023/09/10 03:57:54;;;;;;;4.10;2.40;;;;;;;27.78;34.77;101337.08;102712;1302;64776;-80
2023/09/10 04:00:19;;;;;;;4.50;2.30;;;;;;;27.78;34.47;101337.45;102895;1295;61396;-81
2023/09/10 04:02:46;;;;;;;4.70;2.70;;;;;;;27.78;34.50;101336.40;103035;1295;61410;-81
2023/09/10 04:05:12;;;;;;;4.30;2.70;;;;;;;27.77;34.32;101336.08;102714;1295;61463;-81
2023/09/10 04:07:38;;;;;;;4.60;2.70;;;;;;;27.77;34.39;101340.77;102792;1295;61827;-81
2023/09/10 04:10:06;;;;;;;4.20;2.60;;;;;;;27.77;34.45;101347.27;102653;1295;61426;-81
2023/09/10 04:12:31;;;;;;;4.30;2.50;;;;;;;27.77;34.40;101348.70;102911;1295;61404;-82
2023/09/10 04:14:57;;;;;;;4.70;2.30;;;;;;;27.77;34.34;101348.35;102663;1295;61555;-81
2023/09/10 04:17:23;;;;;;;4.20;2.40;;;;;;;27.77;34.48;101348.53;102675;1300;61368;-82
2023/09/10 04:19:48;;;;;;;4.10;2.60;;;;;;;27.78;34.70;101348.88;102848;1295;61425;-82
2023/09/10 04:22:14;;;;;;;5.80;2.60;;;;;;;27.78;34.55;101352.98;102696;1297;61522;-82
2023/09/10 04:24:41;;;;;;;5.60;2.50;;;;;;;27.77;34.58;101351.25;102795;1294;61391;-82
2023/09/10 04:27:07;;;;;;;4.40;2.60;;;;;;;27.78;34.66;101350.13;102845;1295;61840;-81
2023/09/10 04:29:33;;;;;;;4.80;2.50;;;;;;;27.77;34.67;101349.80;102820;1294;61385;-81
2023/09/10 04:31:59;;;;;;;3.90;2.50;;;;;;;27.78;34.77;101351.59;102692;1295;61511;-82
2023/09/10 04:34:25;;;;;;;4.50;2.30;;;;;;;27.78;34.53;101351.39;102802;1295;61367;-81
2023/09/10 04:36:50;;;;;;;4.20;2.70;;;;;;;27.78;34.68;101358.81;102778;1298;61767;-81
2023/09/10 04:39:17;;;;;;;3.70;2.40;;;;;;;27.78;34.50;101360.77;102635;1294;61440;-81
2023/09/10 04:41:44;;;;;;;5.30;2.60;;;;;;;27.78;34.56;101359.54;102789;1295;61427;-81
2023/09/10 04:44:10;;;;;;;4.30;2.60;;;;;;;27.77;34.61;101360.10;102784;1295;61280;-82
2023/09/10 04:46:35;;;;;;;4.90;2.80;;;;;;;27.78;34.78;101361.35;102721;1295;61394;-81
2023/09/10 04:49:01;;;;;;;3.60;2.40;;;;;;;27.78;34.57;101366.75;102699;1295;62044;-82
2023/09/10 04:51:27;;;;;;;4.90;2.50;;;;;;;27.77;34.70;101364.27;102660;1295;61376;-81
2023/09/10 04:53:52;;;;;;;4.00;2.40;;;;;;;27.78;34.73;101363.13;102692;1295;62786;-81
2023/09/10 04:56:18;;;;;;;3.80;2.40;;;;;;;27.78;34.57;101357.55;102688;1295;61470;-81
2023/09/10 04:58:44;;;;;;;4.20;2.60;;;;;;;27.78;34.81;101358.44;102665;1295;61407;-82
2023/09/10 05:01:09;;;;;;;3.90;2.60;;;;;;;27.77;34.50;101359.91;102762;1294;61972;-81
2023/09/10 05:03:35;;;;;;;5.10;2.50;;;;;;;27.78;34.74;101364.40;102899;1298;61368;-81
2023/09/10 05:06:05;;;;;;;4.30;2.70;;;;;;;27.78;34.59;101367.83;102615;1295;61411;-81
2023/09/10 05:08:31;;;;;;;4.80;2.50;;;;;;;27.77;34.59;101366.41;102674;1295;61347;-82
2023/09/10 05:10:56;;;;;;;3.90;2.30;;;;;;;27.77;34.63;101361.92;102802;1295;61414;-81
2023/09/10 05:13:22;;;;;;;4.60;3.00;;;;;;;27.77;34.54;101364.28;102853;1295;61802;-82
2023/09/10 05:15:48;;;;;;;4.90;2.60;;;;;;;27.77;34.56;101363.55;102673;1295;61459;-81
2023/09/10 05:18:17;;;;;;;4.50;2.70;;;;;;;27.77;34.54;101368.08;102711;1295;61314;-82
2023/09/10 05:20:42;;;;;;;3.80;2.40;;;;;;;27.78;34.76;101368.04;102681;1294;61404;-81
2023/09/10 05:23:09;;;;;;;3.70;2.40;;;;;;;27.77;34.54;101372.44;102758;1294;61439;-82
2023/09/10 05:25:35;;;;;;;5.00;2.60;;;;;;;27.77;34.47;101373.90;102885;1295;61500;-82
2023/09/10 05:28:02;;;;;;;6.20;2.60;;;;;;;27.77;34.72;101372.78;102782;1296;61809;-82
2023/09/10 05:30:27;;;;;;;4.00;2.30;;;;;;;27.77;34.74;101374.40;102678;1294;61441;-83
2023/09/10 05:32:53;;;;;;;4.30;2.60;;;;;;;27.78;34.72;101376.17;102793;1295;61310;-83
2023/09/10 05:35:18;;;;;;;3.70;2.40;;;;;;;27.77;34.59;101373.83;102790;1295;62248;-83
2023/09/10 05:37:44;;;;;;;3.70;2.40;;;;;;;27.77;34.65;101374.58;102667;1295;61331;-83
2023/09/10 05:40:10;;;;;;;4.30;2.50;;;;;;;27.78;34.67;101377.60;102721;1297;62704;-83
2023/09/10 05:42:35;;;;;;;4.00;2.40;;;;;;;27.77;34.73;101377.98;102739;1300;61401;-83
2023/09/10 05:45:01;;;;;;;4.50;2.70;;;;;;;27.78;34.73;101385.17;102855;1295;61455;-83
2023/09/10 05:47:26;;;;;;;4.00;2.50;;;;;;;27.78;34.61;101387.89;102895;1294;61403;-83
2023/09/10 05:49:52;;;;;;;4.00;2.40;;;;;;;27.79;34.67;101384.05;102871;1300;61423;-83
2023/09/10 05:52:18;;;;;;;3.90;2.30;;;;;;;27.79;34.42;101385.83;102721;1297;61399;-82
2023/09/10 05:54:43;;;;;;;4.40;2.50;;;;;;;27.80;34.48;101388.12;102724;1295;61461;-83
2023/09/10 05:57:09;;;;;;;4.90;2.50;;;;;;;27.81;34.54;101390.95;102855;1295;61345;-83
2023/09/10 05:59:34;;;;;;;4.40;2.60;;;;;;;27.81;34.56;101397.24;102737;1294;61343;-83
2023/09/10 06:02:00;;;;;;;4.80;2.50;;;;;;;27.82;34.59;101402.16;102976;1294;61408;-83
2023/09/10 06:04:27;;;;;;;5.30;2.60;;;;;;;27.83;34.46;101403.02;102681;1294;61660;-83
2023/09/10 06:06:53;;;;;;;4.10;2.40;;;;;;;27.83;34.63;101408.79;102881;1295;63834;-83
2023/09/10 06:09:18;;;;;;;4.50;2.70;;;;;;;27.83;34.57;101413.30;102962;1294;61407;-83
2023/09/10 06:11:44;;;;;;;4.20;2.60;;;;;;;27.83;34.74;101412.18;102894;1299;61308;-81
2023/09/10 06:14:10;;;;;;;3.90;2.40;;;;;;;27.83;34.59;101413.50;102749;1295;61339;-82
2023/09/10 06:16:36;;;;;;;4.10;2.30;;;;;;;27.83;34.61;101415.98;102853;1295;61327;-82
2023/09/10 06:19:01;;;;;;;5.50;2.60;;;;;;;27.83;34.87;101415.48;102747;1295;61938;-82
2023/09/10 06:21:28;;;;;;;4.50;2.50;;;;;;;27.83;34.90;101421.05;102840;1300;65743;-83
2023/09/10 06:23:54;;;;;;;4.60;2.50;;;;;;;27.83;34.52;101412.76;102676;1294;61496;-82
2023/09/10 06:26:20;;;;;;;4.10;2.60;;;;;;;27.83;34.79;101407.11;102731;1294;61349;-82
2023/09/10 06:28:45;;;;;;;3.80;2.40;;;;;;;27.82;34.66;101408.84;102720;1300;61439;-82
2023/09/10 06:31:11;;;;;;;4.40;2.60;;;;;;;27.83;34.75;101411.88;102895;1298;61488;-82
2023/09/10 06:33:36;;;;;;;4.50;2.50;;;;;;;27.83;34.74;101416.75;102892;1294;61400;-82
2023/09/10 06:36:02;;;;;;;4.40;2.40;;;;;;;27.83;34.70;101419.61;102807;1295;62227;-83
2023/09/10 06:38:28;;;;;;;5.30;2.90;;;;;;;27.84;34.83;101423.36;102704;1297;61438;-81
2023/09/10 06:40:54;;;;;;;5.10;2.60;;;;;;;27.84;34.66;101424.27;102778;1295;62944;-81
2023/09/10 06:43:19;;;;;;;3.70;2.30;;;;;;;27.83;34.77;101424.48;102892;1295;61411;-81
2023/09/10 06:45:45;;;;;;;3.80;2.50;;;;;;;27.84;34.74;101430.55;102877;1297;62556;-81
2023/09/10 06:48:10;;;;;;;4.50;2.60;;;;;;;27.84;34.75;101428.73;102895;1295;61365;-81
2023/09/10 06:50:36;;;;;;;3.90;2.60;;;;;;;27.85;34.79;101428.36;102772;1295;61306;-81
2023/09/10 06:53:02;;;;;;;4.30;2.50;;;;;;;27.85;34.84;101427.02;102794;1298;61413;-81
2023/09/10 06:55:27;;;;;;;4.40;2.30;;;;;;;27.86;34.82;101426.95;102946;1300;61365;-81
2023/09/10 06:57:53;;;;;;;4.20;2.30;;;;;;;27.86;34.98;101427.91;102835;1296;61416;-81
2023/09/10 07:00:20;;;;;;;4.40;2.30;;;;;;;27.86;34.93;101427.16;103178;1295;61322;-81
2023/09/10 07:02:45;;;;;;;4.00;2.50;;;;;;;27.86;34.77;101423.27;102682;1303;62028;-81
2023/09/10 07:05:13;;;;;;;4.30;2.40;;;;;;;27.87;34.88;101423.05;102751;1300;61369;-81
2023/09/10 07:07:39;;;;;;;4.70;2.40;;;;;;;27.88;35.02;101420.94;102905;1297;61499;-81
2023/09/10 07:10:05;;;;;;;4.40;2.60;;;;;;;27.88;34.96;101416.98;102663;1296;61330;-81
2023/09/10 07:12:31;;;;;;;3.70;2.30;;;;;;;27.89;35.20;101415.65;102715;1296;62138;-81
2023/09/10 07:14:57;;;;;;;4.00;2.50;;;;;;;27.90;35.20;101414.30;102632;1296;63834;-81
2023/09/10 07:17:22;;;;;;;4.50;2.60;;;;;;;27.90;34.96;101413.91;102845;1301;61500;-81
2023/09/10 07:19:48;;;;;;;4.50;2.60;;;;;;;27.90;35.20;101413.48;103059;1297;61345;-81
2023/09/10 07:22:13;;;;;;;3.40;2.30;;;;;;;27.90;35.09;101415.70;102855;1297;61421;-81
2023/09/10 07:24:40;;;;;;;3.60;2.40;;;;;;;27.91;35.16;101417.06;102839;1296;61400;-82
2023/09/10 07:27:05;;;;;;;4.60;2.30;;;;;;;27.92;34.96;101415.17;102771;1302;63873;-82
2023/09/10 07:29:31;;;;;;;4.30;2.60;;;;;;;27.93;35.05;101417.63;102638;1296;61379;-81
2023/09/10 07:31:56;;;;;;;3.60;2.40;;;;;;;27.93;34.95;101414.21;102695;1302;61328;-81
2023/09/10 07:34:22;;;;;;;4.00;2.30;;;;;;;27.93;35.05;101415.63;102817;1298;61439;-82
2023/09/10 07:36:47;;;;;;;4.00;2.40;;;;;;;27.94;35.02;101414.70;102769;1298;61490;-81
2023/09/10 07:39:14;;;;;;;4.00;2.30;;;;;;;27.93;35.22;101415.41;102710;1298;63821;-82
2023/09/10 07:41:39;;;;;;;4.30;2.30;;;;;;;27.95;35.35;101413.52;102706;1297;61314;-81
2023/09/10 07:44:05;;;;;;;4.10;2.40;;;;;;;27.95;35.22;101414.35;102721;1300;62081;-81
2023/09/10 07:46:34;;;;;;;4.40;2.40;;;;;;;27.95;35.29;101412.75;102734;1297;61370;-82
2023/09/10 07:49:00;;;;;;;4.20;2.50;;;;;;;27.96;35.57;101414.52;102706;1298;63897;-81
2023/09/10 07:51:26;;;;;;;3.90;2.40;;;;;;;27.96;35.29;101414.31;102701;1296;61849;-82
2023/09/10 07:53:51;;;;;;;4.00;2.50;;;;;;;27.96;35.43;101413.41;102692;1301;61488;-82
2023/09/10 07:56:17;;;;;;;4.90;2.20;;;;;;;27.96;35.29;101414.30;102743;1296;61342;-82
2023/09/10 07:58:42;;;;;;;4.00;2.20;;;;;;;27.97;35.32;101411.52;102812;1300;61985;-82
2023/09/10 08:01:08;;;;;;;5.70;2.80;;;;;;;27.97;35.23;101412.02;102741;1297;62337;-81
2023/09/10 08:03:36;;;;;;;5.70;2.80;;;;;;;27.97;35.43;101411.61;102546;1297;61369;-82
2023/09/10 08:06:03;;;;;;;5.10;2.40;;;;;;;27.98;35.31;101410.91;102712;1296;61413;-81
2023/09/10 08:08:29;;;;;;;4.50;2.70;;;;;;;27.97;35.23;101408.38;102620;1301;61360;-82
2023/09/10 08:10:55;;;;;;;4.00;2.40;;;;;;;27.98;35.15;101409.25;102679;1300;61458;-82
2023/09/10 08:13:21;;;;;;;4.30;2.70;;;;;;;27.98;35.40;101412.33;102719;1297;61504;-82
2023/09/10 08:15:47;;;;;;;4.10;2.30;;;;;;;27.98;35.54;101409.61;102662;1297;61411;-81
2023/09/10 08:18:12;;;;;;;4.10;2.30;;;;;;;27.98;35.46;101408.88;102756;1301;61415;-81
2023/09/10 08:20:42;;;;;;;4.20;2.40;;;;;;;27.98;35.45;101408.67;102716;1297;62294;-81
2023/09/10 08:23:08;;;;;;;3.60;2.50;;;;;;;27.98;35.53;101403.92;102899;1297;63802;-82
2023/09/10 08:25:33;;;;;;;3.80;2.30;;;;;;;27.99;35.56;101408.05;102645;1301;61455;-81
2023/09/10 08:27:59;;;;;;;4.30;2.60;;;;;;;27.99;35.25;101404.63;102705;1298;61418;-82
2023/09/10 08:30:25;;;;;;;3.40;2.40;;;;;;;27.99;35.52;101404.45;102820;1296;61334;-81
2023/09/10 08:32:50;;;;;;;3.80;2.30;;;;;;;27.99;35.58;101409.48;102783;1300;61875;-82
2023/09/10 08:35:18;;;;;;;3.90;2.40;;;;;;;27.99;35.57;101404.41;102874;1295;61327;-81
2023/09/10 08:37:43;;;;;;;5.00;2.60;;;;;;;28.00;35.44;101402.94;103108;1295;64876;-81
2023/09/10 08:40:10;;;;;;;4.10;2.30;;;;;;;28.00;35.69;101399.69;103060;1299;61483;-82
2023/09/10 08:42:40;;;;;;;4.00;2.40;;;;;;;28.00;35.71;101402.20;102821;1295;62098;-82
2023/09/10 08:45:10;;;;;;;4.60;2.40;;;;;;;28.00;35.72;101401.09;103029;1299;63663;-82
2023/09/10 08:47:41;;;;;;;5.00;2.50;;;;;;;28.00;35.67;101399.27;102806;1295;65576;-82
2023/09/10 08:50:08;;;;;;;4.10;2.50;;;;;;;28.01;35.87;101402.33;102699;1294;61347;-82
2023/09/10 08:52:38;;;;;;;3.70;2.40;;;;;;;28.01;35.77;101397.92;102973;1295;61401;-82
2023/09/10 08:55:05;;;;;;;3.90;2.30;;;;;;;28.01;35.72;101392.70;102818;1299;63748;-82
2023/09/10 08:57:37;;;;;;;5.40;2.60;;;;;;;28.01;35.81;101391.98;102901;1294;65878;-82
2023/09/10 09:00:10;;;;;;;5.60;2.60;;;;;;;28.01;35.66;101392.87;102928;1295;61335;-81
2023/09/10 09:02:38;;;;;;;4.50;2.70;;;;;;;28.01;35.46;101391.96;102777;1300;61311;-82
2023/09/10 09:05:05;;;;;;;4.30;2.40;;;;;;;28.01;35.70;101390.36;102709;1295;63913;-82
2023/09/10 09:07:32;;;;;;;3.80;2.30;;;;;;;28.01;35.88;101390.19;102771;1301;65847;-82
2023/09/10 09:09:58;;;;;;;5.30;2.50;;;;;;;28.01;35.71;101390.39;102813;1298;61977;-81
2023/09/10 09:12:24;;;;;;;6.50;2.80;;;;;;;28.00;35.66;101391.66;102683;1298;61409;-82
2023/09/10 09:14:50;;;;;;;4.30;2.60;;;;;;;28.00;35.69;101391.32;102887;1299;61377;-82
2023/09/10 09:17:15;;;;;;;4.20;2.40;;;;;;;28.01;35.57;101392.17;102763;1294;61406;-82
2023/09/10 09:19:43;;;;;;;4.40;2.30;;;;;;;28.00;35.56;101389.16;102904;1295;62773;-81
2023/09/10 09:22:09;;;;;;;4.30;2.40;;;;;;;28.00;35.83;101391.34;102917;1294;61393;-82
2023/09/10 09:24:35;;;;;;;3.60;2.30;;;;;;;28.00;35.61;101391.91;102691;1295;61401;-82
2023/09/10 09:27:01;;;;;;;5.60;2.90;;;;;;;27.99;35.86;101382.91;102819;1298;61916;-82
2023/09/10 09:29:29;;;;;;;4.40;2.40;;;;;;;28.00;35.80;101389.74;102777;1294;61490;-82
2023/09/10 09:31:55;;;;;;;4.20;2.50;;;;;;;28.00;35.56;101388.48;102784;1300;61380;-82
2023/09/10 09:34:21;;;;;;;3.70;2.30;;;;;;;27.99;35.75;101391.05;102692;1300;61795;-81
2023/09/10 09:36:53;;;;;;;4.70;2.60;;;;;;;27.99;35.74;101389.73;102732;1296;61470;-82
2023/09/10 09:39:20;;;;;;;5.50;2.70;;;;;;;27.99;35.91;101385.45;102892;1296;61368;-82
2023/09/10 09:41:54;;;;;;;4.30;2.50;;;;;;;27.98;36.04;101385.30;102866;1295;61517;-82
2023/09/10 09:44:20;;;;;;;4.40;2.60;;;;;;;27.99;35.91;101382.02;102881;1298;72570;-81
2023/09/10 09:46:47;;;;;;;4.50;2.80;;;;;;;27.98;35.92;101381.34;103062;1298;61378;-82
2023/09/10 09:49:12;;;;;;;4.30;2.70;;;;;;;27.98;35.78;101378.09;102940;1295;61374;-82
2023/09/10 09:51:40;;;;;;;4.20;2.50;;;;;;;27.99;35.61;101382.73;102694;1300;61397;-81
2023/09/10 09:54:07;;;;;;;4.00;2.40;;;;;;;27.99;35.81;101377.17;103074;1295;63968;-81
2023/09/10 09:56:33;;;;;;;4.30;2.50;;;;;;;27.99;35.75;101374.45;102822;1300;66896;-82
2023/09/10 09:58:58;;;;;;;3.90;2.60;;;;;;;27.98;35.75;101372.52;102759;1295;61451;-81
2023/09/10 10:01:24;;;;;;;3.90;2.50;;;;;;;27.98;35.95;101371.63;102728;1297;61395;-82
2023/09/10 10:03:50;;;;;;;4.20;2.40;;;;;;;27.98;36.04;101368.31;102711;1294;61526;-82
2023/09/10 10:06:18;;;;;;;5.20;2.60;;;;;;;27.99;35.99;101372.45;102674;1300;61493;-82
2023/09/10 10:08:50;;;;;;;5.60;2.60;;;;;;;27.99;35.82;101371.54;102681;1300;61384;-82
2023/09/10 10:11:29;;;;;;;3.80;2.40;;;;;;;27.98;36.02;101367.56;102711;1298;61420;-82
2023/09/10 10:14:01;;;;;;;3.70;2.40;;;;;;;27.98;35.83;101366.69;102846;1303;63668;-82
2023/09/10 10:16:28;;;;;;;3.60;2.20;;;;;;;27.99;35.73;101367.92;102929;1294;65706;-82
2023/09/10 10:18:54;;;;;;;5.50;2.50;;;;;;;27.99;35.90;101365.58;102998;1295;61344;-81
2023/09/10 10:21:21;;;;;;;4.10;2.50;;;;;;;27.99;35.92;101368.05;102730;1300;61420;-82
2023/09/10 10:23:47;;;;;;;5.20;2.70;;;;;;;28.00;35.88;101364.78;102735;1294;61293;-82
2023/09/10 10:26:12;;;;;;;4.20;2.50;;;;;;;28.00;35.82;101365.12;102741;1295;61564;-82
2023/09/10 10:28:38;;;;;;;5.80;2.70;;;;;;;28.00;35.98;101363.30;102850;1298;61359;-81
2023/09/10 10:31:07;;;;;;;4.50;2.40;;;;;;;27.99;35.74;101361.20;102997;1295;61391;-82
2023/09/10 10:33:33;;;;;;;4.10;2.50;;;;;;;28.00;35.80;101365.45;102754;1297;63867;-81
2023/09/10 10:36:35;;;;;;;4.70;2.60;;;;;;;28.00;35.82;101364.02;103028;1300;61498;-81
2023/09/10 10:39:06;;;;;;;5.20;2.50;;;;;;;27.99;35.77;101364.44;103028;1299;61311;-82
2023/09/10 10:41:31;;;;;;;4.30;2.30;;;;;;;28.00;35.72;101359.70;102860;1300;61465;-82
2023/09/10 10:44:04;;;;;;;5.70;3.00;;;;;;;28.00;35.84;101357.65;102743;1296;61740;-81
2023/09/10 10:46:32;;;;;;;4.70;2.40;;;;;;;28.00;35.87;101352.10;102782;1299;65862;-81
2023/09/10 10:48:58;;;;;;;4.90;2.40;;;;;;;28.00;35.79;101351.70;102733;1300;61540;-81
2023/09/10 10:51:24;;;;;;;5.00;2.60;;;;;;;28.00;35.74;101349.85;102697;1295;61450;-82
2023/09/10 10:53:49;;;;;;;4.70;2.30;;;;;;;28.00;35.71;101346.81;102706;1300;61861;-81
2023/09/10 10:56:15;;;;;;;4.90;2.70;;;;;;;28.00;35.58;101343.91;102908;1295;61328;-82
2023/09/10 10:58:41;;;;;;;4.60;2.40;;;;;;;28.00;35.72;101344.99;102736;1300;65625;-82
2023/09/10 11:01:12;;;;;;;5.50;2.50;;;;;;;28.00;35.75;101344.98;102873;1294;61288;-82
2023/09/10 11:03:38;;;;;;;5.00;2.60;;;;;;;28.00;35.71;101340.13;102826;1300;61446;-82
2023/09/10 11:06:04;;;;;;;4.30;2.30;;;;;;;28.00;35.71;101338.65;102745;1303;61404;-82
2023/09/10 11:08:34;;;;;;;3.90;2.70;;;;;;;28.01;35.76;101337.92;102698;1300;61257;-82
2023/09/10 11:11:00;;;;;;;4.60;2.60;;;;;;;28.01;35.69;101340.09;102952;1300;61410;-82
2023/09/10 11:13:26;;;;;;;3.80;2.40;;;;;;;28.01;35.68;101334.11;102626;1296;61387;-81
2023/09/10 11:16:13;;;;;;;5.20;2.70;;;;;;;28.01;35.56;101328.27;102692;1301;61288;-82